FredonyerEastRWIS Atmospheric Data: 04/15/2019 Summary  Detailed Graphs  Station List

  Temperature     Wind Precipitation Visibility
Timestamp Air Wet
Bulb
Dew-
point
24-hr
Max
24-hr
Min
Relative
Humidity
Atmospheric
Pressure
Avg
Speed
Avg
Dir
Spot
Speed
Spot
Dir
Max
Speed
Max
Dir
  Rate Situation Start End 1 hr 3 hr 6 hr 12 hr 24 hr   Situation
Date Time °F °F °F °F °F % in Hg mph ° mph ° mph ° Y/N in/hr text Date Time Date Time in in in in in mi text
04/15/2019 12:08 AM 42.98 38.84 33.62 54.86 37.94 69.0 Not Reported 2.46 S 1.57 E 7.83 SW No 0.000 No Precipitation 04/12/2019 11:05 AM 04/12/2019 11:10 AM 0.000 0.000 0.000 0.000 0.000 Not Reported Not Reported
04/15/2019 12:23 AM 42.98 39.20 34.34 54.86 37.94 71.0 Not Reported 5.14 SE 6.49 W 9.40 S No 0.000 No Precipitation 04/12/2019 11:05 AM 04/12/2019 11:10 AM 0.000 0.000 0.000 0.000 0.000 Not Reported Not Reported
04/15/2019 12:38 AM 42.80 39.20 34.52 54.86 37.94 72.0 Not Reported 4.25 SW 2.68 SW 7.61 SW No 0.000 No Precipitation 04/12/2019 11:05 AM 04/12/2019 11:10 AM 0.000 0.000 0.000 0.000 0.000 Not Reported Not Reported
04/15/2019 12:53 AM 42.98 39.38 34.88 54.86 37.94 72.0 Not Reported 1.79 W 3.13 SW 6.71 SW No 0.000 No Precipitation 04/12/2019 11:05 AM 04/12/2019 11:10 AM 0.000 0.000 0.000 0.000 0.000 Not Reported Not Reported
04/15/2019 01:08 AM 42.98 39.38 34.88 54.86 37.94 72.0 Not Reported 5.37 W 4.92 S 5.59 NW No 0.000 No Precipitation 04/12/2019 11:05 AM 04/12/2019 11:10 AM 0.000 0.000 0.000 0.000 0.000 Not Reported Not Reported
04/15/2019 01:23 AM 42.62 39.20 34.70 54.86 37.94 73.0 Not Reported 3.36 S 5.14 N 7.38 SW No 0.000 No Precipitation 04/12/2019 11:05 AM 04/12/2019 11:10 AM 0.000 0.000 0.000 0.000 0.000 Not Reported Not Reported
04/15/2019 01:38 AM 42.26 38.84 34.16 54.86 37.94 72.0 Not Reported 5.37 SE 8.50 W 8.95 W No 0.000 No Precipitation 04/12/2019 11:05 AM 04/12/2019 11:10 AM 0.000 0.000 0.000 0.000 0.000 Not Reported Not Reported
04/15/2019 01:53 AM 42.08 38.48 33.80 54.86 37.94 71.0 Not Reported 5.14 SW 4.03 SW 10.96 S No 0.000 No Precipitation 04/12/2019 11:05 AM 04/12/2019 11:10 AM 0.000 0.000 0.000 0.000 0.000 Not Reported Not Reported
04/15/2019 02:08 AM 42.08 38.12 32.90 54.86 37.94 69.0 Not Reported 3.58 S 3.80 W 7.83 SW No 0.000 No Precipitation 04/12/2019 11:05 AM 04/12/2019 11:10 AM 0.000 0.000 0.000 0.000 0.000 Not Reported Not Reported
04/15/2019 02:23 AM 41.18 37.40 32.18 54.86 37.94 69.0 Not Reported 1.34 W 3.13 SW 5.59 N No 0.000 No Precipitation 04/12/2019 11:05 AM 04/12/2019 11:10 AM 0.000 0.000 0.000 0.000 0.000 Not Reported Not Reported
04/15/2019 02:38 AM 41.72 37.58 32.00 54.86 37.94 67.0 Not Reported 4.03 SW 3.80 SW 7.83 SW No 0.000 No Precipitation 04/12/2019 11:05 AM 04/12/2019 11:10 AM 0.000 0.000 0.000 0.000 0.000 Not Reported Not Reported
04/15/2019 02:53 AM 41.72 37.22 31.10 54.86 37.94 65.0 Not Reported 2.91 SW 3.80 W 8.05 S No 0.000 No Precipitation 04/12/2019 11:05 AM 04/12/2019 11:10 AM 0.000 0.000 0.000 0.000 0.000 Not Reported Not Reported
04/15/2019 03:08 AM 41.72 36.86 30.02 54.86 37.94 62.0 Not Reported 3.13 SW 2.91 SW 7.83 SE No 0.000 No Precipitation 04/12/2019 11:05 AM 04/12/2019 11:10 AM 0.000 0.000 0.000 0.000 0.000 Not Reported Not Reported
04/15/2019 03:23 AM 42.26 37.04 29.66 54.86 37.94 60.0 Not Reported 3.13 S 2.01 E 8.72 SW No 0.000 No Precipitation 04/12/2019 11:05 AM 04/12/2019 11:10 AM 0.000 0.000 0.000 0.000 0.000 Not Reported Not Reported
04/15/2019 03:38 AM 40.28 36.50 31.28 54.86 37.94 69.0 Not Reported 2.91 N 1.79 W 4.25 SW No 0.000 No Precipitation 04/12/2019 11:05 AM 04/12/2019 11:10 AM 0.000 0.000 0.000 0.000 0.000 Not Reported Not Reported
04/15/2019 03:53 AM 40.46 36.14 29.84 54.86 37.94 64.0 Not Reported 1.57 NW 0.00 SE 5.82 SW No 0.000 No Precipitation 04/12/2019 11:05 AM 04/12/2019 11:10 AM 0.000 0.000 0.000 0.000 0.000 Not Reported Not Reported
04/15/2019 04:08 AM 39.02 35.60 30.74 54.86 37.94 71.0 Not Reported 2.68 NW 4.25 NW 3.36 NW No 0.000 No Precipitation 04/12/2019 11:05 AM 04/12/2019 11:10 AM 0.000 0.000 0.000 0.000 0.000 Not Reported Not Reported
04/15/2019 04:23 AM 38.66 35.60 31.28 54.86 37.94 73.0 Not Reported 4.03 NW 1.79 N 7.61 NW No 0.000 No Precipitation 04/12/2019 11:05 AM 04/12/2019 11:10 AM 0.000 0.000 0.000 0.000 0.000 Not Reported Not Reported
04/15/2019 04:38 AM 38.84 35.78 31.64 54.86 37.94 74.0 Not Reported 0.67 N 0.67 S 8.05 W No 0.000 No Precipitation 04/12/2019 11:05 AM 04/12/2019 11:10 AM 0.000 0.000 0.000 0.000 0.000 Not Reported Not Reported
04/15/2019 04:53 AM 38.66 35.96 32.00 54.86 37.22 77.0 Not Reported 2.01 W 1.79 S 3.58 W No 0.000 No Precipitation 04/12/2019 11:05 AM 04/12/2019 11:10 AM 0.000 0.000 0.000 0.000 0.000 Not Reported Not Reported
04/15/2019 05:08 AM 36.14 34.34 32.00 54.86 36.14 84.0 Not Reported 0.89 S 0.45 SE 2.91 W No 0.000 No Precipitation 04/12/2019 11:05 AM 04/12/2019 11:10 AM 0.000 0.000 0.000 0.000 0.000 Not Reported Not Reported
04/15/2019 05:23 AM 38.12 35.42 31.82 54.86 35.96 77.0 Not Reported 0.45 NE 0.67 E 3.80 W No 0.000 No Precipitation 04/12/2019 11:05 AM 04/12/2019 11:10 AM 0.000 0.000 0.000 0.000 0.000 Not Reported Not Reported
04/15/2019 05:38 AM 36.86 34.70 32.00 54.86 35.96 82.0 Not Reported 1.79 E 0.89 W 1.79 N No 0.000 No Precipitation 04/12/2019 11:05 AM 04/12/2019 11:10 AM 0.000 0.000 0.000 0.000 0.000 Not Reported Not Reported
04/15/2019 05:53 AM 35.96 34.16 31.64 54.86 35.96 83.0 Not Reported 0.45 SE 0.67 N 4.47 E No 0.000 No Precipitation 04/12/2019 11:05 AM 04/12/2019 11:10 AM 0.000 0.000 0.000 0.000 0.000 Not Reported Not Reported
04/15/2019 06:08 AM 36.14 34.16 31.46 54.86 35.78 82.0 Not Reported 1.34 SE 0.89 NE 2.68 W No 0.000 No Precipitation 04/12/2019 11:05 AM 04/12/2019 11:10 AM 0.000 0.000 0.000 0.000 0.000 Not Reported Not Reported
04/15/2019 06:23 AM 35.06 33.44 31.10 54.86 34.88 84.0 Not Reported 0.45 NW 2.01 NW 3.80 E No 0.000 No Precipitation 04/12/2019 11:05 AM 04/12/2019 11:10 AM 0.000 0.000 0.000 0.000 0.000 Not Reported Not Reported
04/15/2019 06:38 AM 35.78 33.62 30.74 54.86 34.88 81.0 Not Reported 1.12 W 0.00 S 2.24 NW No 0.000 No Precipitation 04/12/2019 11:05 AM 04/12/2019 11:10 AM 0.000 0.000 0.000 0.000 0.000 Not Reported Not Reported
04/15/2019 06:53 AM 36.32 33.98 30.56 54.86 34.88 79.0 Not Reported 0.45 S 0.00 W 4.25 NW No 0.000 No Precipitation 04/12/2019 11:05 AM 04/12/2019 11:10 AM 0.000 0.000 0.000 0.000 0.000 Not Reported Not Reported
04/15/2019 07:08 AM 35.60 33.44 30.38 54.86 34.88 80.0 Not Reported 1.12 E 2.01 SE 2.68 S No 0.000 No Precipitation 04/12/2019 11:05 AM 04/12/2019 11:10 AM 0.000 0.000 0.000 0.000 0.000 Not Reported Not Reported
04/15/2019 07:23 AM 38.48 34.34 28.04 54.86 34.88 65.0 Not Reported 0.67 N 1.12 N 3.13 SE No 0.000 No Precipitation 04/12/2019 11:05 AM 04/12/2019 11:10 AM 0.000 0.000 0.000 0.000 0.000 Not Reported Not Reported
04/15/2019 07:38 AM 40.28 34.70 25.88 54.86 34.88 55.0 Not Reported 2.46 NW 2.01 SW 2.91 NE No 0.000 No Precipitation 04/12/2019 11:05 AM 04/12/2019 11:10 AM 0.000 0.000 0.000 0.000 0.000 Not Reported Not Reported
04/15/2019 07:53 AM 41.54 35.06 24.62 54.86 34.88 50.0 Not Reported 1.79 SW 5.14 SE 7.38 W No 0.000 No Precipitation 04/12/2019 11:05 AM 04/12/2019 11:10 AM 0.000 0.000 0.000 0.000 0.000 Not Reported Not Reported
04/15/2019 08:08 AM 42.26 34.70 21.74 54.86 34.88 43.0 Not Reported 3.80 W 2.91 W 5.59 SW No 0.000 No Precipitation 04/12/2019 11:05 AM 04/12/2019 11:10 AM 0.000 0.000 0.000 0.000 0.000 Not Reported Not Reported
04/15/2019 08:23 AM 42.98 34.34 19.04 54.86 34.88 37.0 Not Reported 3.13 SW 7.38 S 8.72 SW No 0.000 No Precipitation 04/12/2019 11:05 AM 04/12/2019 11:10 AM 0.000 0.000 0.000 0.000 0.000 Not Reported Not Reported
04/15/2019 08:38 AM 44.96 35.60 19.04 54.86 34.88 34.0 Not Reported 8.50 W 2.68 SE 7.38 S No 0.000 No Precipitation 04/12/2019 11:05 AM 04/12/2019 11:10 AM 0.000 0.000 0.000 0.000 0.000 Not Reported Not Reported
04/15/2019 08:53 AM 45.32 35.96 19.58 54.86 34.88 35.0 Not Reported 2.46 SE 3.13 S 6.71 W No 0.000 No Precipitation 04/12/2019 11:05 AM 04/12/2019 11:10 AM 0.000 0.000 0.000 0.000 0.000 Not Reported Not Reported
04/15/2019 09:09 AM 44.60 35.24 18.50 54.86 34.88 34.0 Not Reported 4.25 NW 5.59 NW 6.49 NW No 0.000 No Precipitation 04/12/2019 11:05 AM 04/12/2019 11:10 AM 0.000 0.000 0.000 0.000 0.000 Not Reported Not Reported
04/15/2019 09:23 AM 44.78 35.06 17.78 54.86 34.88 33.0 Not Reported 2.91 SW 3.58 W 7.61 SW No 0.000 No Precipitation 04/12/2019 11:05 AM 04/12/2019 11:10 AM 0.000 0.000 0.000 0.000 0.000 Not Reported Not Reported
04/15/2019 09:38 AM 45.68 35.60 17.96 54.86 34.88 32.0 Not Reported 1.57 SW 3.58 SE 7.61 NW No 0.000 No Precipitation 04/12/2019 11:05 AM 04/12/2019 11:10 AM 0.000 0.000 0.000 0.000 0.000 Not Reported Not Reported
04/15/2019 09:53 AM 45.86 35.96 18.14 54.86 34.88 32.0 Not Reported 2.91 S 2.68 SE 8.72 W No 0.000 No Precipitation 04/12/2019 11:05 AM 04/12/2019 11:10 AM 0.000 0.000 0.000 0.000 0.000 Not Reported Not Reported
04/15/2019 10:08 AM 45.68 35.24 15.80 54.86 34.88 29.0 Not Reported 9.17 SW 5.82 W 9.40 S No 0.000 No Precipitation 04/12/2019 11:05 AM 04/12/2019 11:10 AM 0.000 0.000 0.000 0.000 0.000 Not Reported Not Reported
04/15/2019 10:23 AM 46.22 35.96 17.78 54.86 34.88 31.0 Not Reported 4.47 SW 3.80 S 13.20 W No 0.000 No Precipitation 04/12/2019 11:05 AM 04/12/2019 11:10 AM 0.000 0.000 0.000 0.000 0.000 Not Reported Not Reported
04/15/2019 10:38 AM 46.58 36.50 19.58 54.86 34.88 33.0 Not Reported 6.04 SW 3.58 SW 10.74 SE No 0.000 No Precipitation 04/12/2019 11:05 AM 04/12/2019 11:10 AM 0.000 0.000 0.000 0.000 0.000 Not Reported Not Reported
04/15/2019 10:53 AM 44.78 36.32 22.64 54.86 34.88 41.0 Not Reported 12.53 S 8.05 N 14.54 S No 0.000 No Precipitation 04/12/2019 11:05 AM 04/12/2019 11:10 AM 0.000 0.000 0.000 0.000 0.000 Not Reported Not Reported
04/15/2019 11:08 AM 44.78 37.22 25.52 54.86 34.88 45.0 Not Reported 6.93 SW 9.84 SW 16.78 S No 0.000 No Precipitation 04/12/2019 11:05 AM 04/12/2019 11:10 AM 0.000 0.000 0.000 0.000 0.000 Not Reported Not Reported
04/15/2019 11:23 AM 44.24 37.04 26.42 54.86 34.88 48.0 Not Reported 12.53 W 5.37 S 12.53 S No 0.000 No Precipitation 04/12/2019 11:05 AM 04/12/2019 11:10 AM 0.000 0.000 0.000 0.000 0.000 Not Reported Not Reported
04/15/2019 11:38 AM 43.70 37.76 29.30 54.86 34.88 56.0 Not Reported 4.70 W 7.61 SW 14.09 W No 0.000 No Precipitation 04/12/2019 11:05 AM 04/12/2019 11:10 AM 0.000 0.000 0.000 0.000 0.000 Not Reported Not Reported
04/15/2019 11:53 AM 42.98 38.84 33.62 54.86 34.88 69.0 Not Reported 4.25 S 1.34 NE 8.50 S No 0.000 No Precipitation 04/12/2019 11:05 AM 04/12/2019 11:10 AM 0.000 0.000 0.000 0.000 0.000 Not Reported Not Reported
04/15/2019 12:08 PM 42.44 38.48 33.44 54.86 34.88 70.0 Not Reported 4.92 W 4.03 W 14.54 S No 0.000 No Precipitation 04/12/2019 11:05 AM 04/12/2019 11:10 AM 0.000 0.000 0.000 0.000 0.000 Not Reported Not Reported
04/15/2019 12:23 PM 42.08 38.30 33.26 54.86 34.88 70.0 Not Reported 4.47 N 5.14 SW 11.18 SE No 0.000 No Precipitation 04/12/2019 11:05 AM 04/12/2019 11:10 AM 0.000 0.000 0.000 0.000 0.000 Not Reported Not Reported
04/15/2019 12:38 PM 39.74 37.40 34.16 54.86 34.88 80.0 Not Reported 5.59 W 11.41 W 10.07 S No 0.000 No Precipitation 04/12/2019 11:05 AM 04/12/2019 11:10 AM 0.000 0.000 0.000 0.000 0.000 Not Reported Not Reported
04/15/2019 12:53 PM 38.30 36.50 34.16 54.86 34.88 84.0 Not Reported 6.71 SW 9.62 W 11.63 S No 0.000 No Precipitation 04/15/2019 12:48 PM 04/15/2019 12:53 PM 0.004 0.004 0.004 0.004 0.004 Not Reported Not Reported
04/15/2019 01:08 PM 37.58 36.14 34.16 54.68 34.88 86.0 Not Reported 7.61 S 3.80 S 11.41 SW Yes 0.043 Rain Slight 04/15/2019 01:05 PM   0.016 0.016 0.016 0.016 0.016 Not Reported Not Reported
04/15/2019 01:23 PM 37.40 35.78 34.16 54.14 34.88 87.0 Not Reported 8.72 SW 2.91 NW 10.74 W Yes 0.043 Rain Slight 04/15/2019 01:11 PM   0.028 0.028 0.028 0.028 0.028 Not Reported Not Reported
04/15/2019 01:38 PM 37.04 35.60 33.80 54.14 34.88 87.0 Not Reported 5.37 S 10.51 W 14.54 SW Yes 0.043 Rain Slight 04/15/2019 01:37 PM   0.039 0.039 0.039 0.039 0.039 Not Reported Not Reported
04/15/2019 01:53 PM 37.58 36.14 33.98 53.60 34.88 86.0 Not Reported 6.71 W 6.71 W 12.75 SW No 0.000 No Precipitation 04/15/2019 01:45 PM 04/15/2019 01:50 PM 0.039 0.039 0.039 0.039 0.039 Not Reported Not Reported
04/15/2019 02:08 PM 37.58 36.14 33.98 52.70 34.88 86.0 Not Reported 6.49 S 5.59 S 14.54 SW No 0.000 No Precipitation 04/15/2019 01:58 PM 04/15/2019 02:03 PM 0.031 0.043 0.043 0.043 0.043 Not Reported Not Reported
04/15/2019 02:23 PM 36.86 35.06 32.54 51.26 34.88 84.0 Not Reported 9.17 W 5.14 SE 14.32 SW No 0.000 No Precipitation 04/15/2019 02:16 PM 04/15/2019 02:21 PM 0.020 0.051 0.051 0.051 0.051 Not Reported Not Reported
04/15/2019 02:38 PM 37.58 36.14 33.98 49.10 34.88 86.0 Not Reported 8.72 SW 8.05 W 13.42 SW No 0.000 No Precipitation 04/15/2019 02:29 PM 04/15/2019 02:34 PM 0.016 0.055 0.055 0.055 0.055 Not Reported Not Reported
04/15/2019 02:53 PM 36.86 35.42 33.44 49.10 34.88 87.0 Not Reported 7.61 SW 1.57 NE 10.51 NW Yes 0.043 Rain Slight 04/15/2019 02:53 PM   0.016 0.059 0.059 0.059 0.059 Not Reported Not Reported
04/15/2019 03:08 PM 36.68 35.42 33.62 48.56 34.88 88.0 Not Reported 5.37 S 2.46 NE 10.51 S No 0.000 No Precipitation 04/15/2019 02:53 PM 04/15/2019 02:58 PM 0.008 0.059 0.059 0.059 0.059 Not Reported Not Reported
04/15/2019 03:23 PM 36.68 35.24 33.44 47.66 34.88 87.0 Not Reported 4.47 SW 0.89 NW 10.07 SW No 0.000 No Precipitation 04/15/2019 03:18 PM 04/15/2019 03:23 PM 0.016 0.067 0.067 0.067 0.067 Not Reported Not Reported
04/15/2019 03:38 PM 36.14 35.06 33.62 47.66 34.88 89.0 Not Reported 3.58 W 2.91 W 7.38 S No 0.000 No Precipitation 04/15/2019 03:33 PM 04/15/2019 03:38 PM 0.016 0.071 0.071 0.071 0.071 Not Reported Not Reported
04/15/2019 03:53 PM 35.96 35.06 33.98 47.48 34.88 92.0 Not Reported 5.82 W 4.47 NW 9.62 NW No 0.000 No Precipitation 04/15/2019 03:41 PM 04/15/2019 03:46 PM 0.016 0.071 0.075 0.075 0.075 Not Reported Not Reported
04/15/2019 04:08 PM 35.42 34.34 32.90 47.30 34.88 90.0 Not Reported 8.50 W 6.71 NW 7.16 W Yes 0.043 Rain Slight 04/15/2019 04:06 PM   0.020 0.067 0.083 0.083 0.083 Not Reported Not Reported
04/15/2019 04:23 PM 36.68 35.60 33.98 46.94 34.88 89.0 Not Reported 7.16 SW 6.04 SW 7.61 NW No 0.000 No Precipitation 04/15/2019 04:06 PM 04/15/2019 04:11 PM 0.016 0.055 0.083 0.083 0.083 Not Reported Not Reported
04/15/2019 04:38 PM 35.96 34.70 33.08 46.94 34.88 89.0 Not Reported 5.82 W 4.25 SW 8.95 W No 0.000 No Precipitation 04/15/2019 04:06 PM 04/15/2019 04:11 PM 0.008 0.039 0.083 0.083 0.083 Not Reported Not Reported
04/15/2019 04:53 PM 35.42 33.98 32.18 46.94 34.88 87.0 Not Reported 8.50 S 4.70 S 12.30 S No 0.000 No Precipitation 04/15/2019 04:45 PM 04/15/2019 04:50 PM 0.008 0.039 0.083 0.083 0.083 Not Reported Not Reported
04/15/2019 05:08 PM 35.24 33.62 31.64 46.94 34.88 85.0 Not Reported 6.04 NW 3.13 W 9.17 SE Yes 0.043 Rain Slight 04/15/2019 05:04 PM   0.008 0.039 0.091 0.091 0.091 Not Reported Not Reported
04/15/2019 05:23 PM 34.70 33.62 32.00 46.94 34.70 89.0 Not Reported 6.26 W 4.92 W 10.51 SW No 0.000 No Precipitation 04/15/2019 05:04 PM 04/15/2019 05:09 PM 0.008 0.039 0.091 0.091 0.091 Not Reported Not Reported
04/15/2019 05:38 PM 34.70 33.26 31.64 46.94 34.34 87.0 Not Reported 6.71 SW 5.59 NW 10.29 SW No 0.000 No Precipitation 04/15/2019 05:32 PM 04/15/2019 05:37 PM 0.008 0.039 0.091 0.091 0.091 Not Reported Not Reported
04/15/2019 05:53 PM 34.70 33.44 31.46 46.94 34.34 87.0 Not Reported 6.71 W 3.58 W 11.63 SW No 0.000 No Precipitation 04/15/2019 05:32 PM 04/15/2019 05:37 PM 0.008 0.035 0.091 0.091 0.091 Not Reported Not Reported
04/15/2019 06:08 PM 34.88 33.44 31.64 46.94 34.34 87.0 Not Reported 5.82 SW 4.03 S 10.96 SW No 0.000 No Precipitation 04/15/2019 05:32 PM 04/15/2019 05:37 PM 0.004 0.035 0.091 0.091 0.091 Not Reported Not Reported
04/15/2019 06:23 PM 34.88 33.26 31.10 46.94 34.34 85.0 Not Reported 5.59 SW 10.96 S 13.87 SW No 0.000 No Precipitation 04/15/2019 05:32 PM 04/15/2019 05:37 PM 0.004 0.028 0.091 0.091 0.091 Not Reported Not Reported
04/15/2019 06:38 PM 34.52 33.08 30.92 46.94 34.34 86.0 Not Reported 5.14 W 8.72 W 10.96 S No 0.000 No Precipitation 04/15/2019 05:32 PM 04/15/2019 05:37 PM 0.000 0.020 0.091 0.091 0.091 Not Reported Not Reported
04/15/2019 06:53 PM 33.98 32.72 30.74 46.94 33.98 87.0 Not Reported 6.04 S 7.38 S 8.95 NW No 0.000 No Precipitation 04/15/2019 05:32 PM 04/15/2019 05:37 PM 0.000 0.020 0.091 0.091 0.091 Not Reported Not Reported
04/15/2019 07:08 PM 33.98 32.72 30.92 46.94 33.80 87.0 Not Reported 4.25 S 1.79 NW 12.53 SW No 0.000 No Precipitation 04/15/2019 05:32 PM 04/15/2019 05:37 PM 0.000 0.008 0.079 0.091 0.091 Not Reported Not Reported
04/15/2019 07:23 PM 33.98 32.54 30.56 46.94 33.62 86.0 Not Reported 6.71 SW 7.61 SW 9.84 S No 0.000 No Precipitation 04/15/2019 05:32 PM 04/15/2019 05:37 PM 0.000 0.008 0.067 0.091 0.091 Not Reported Not Reported
04/15/2019 07:38 PM 33.80 32.36 30.38 46.94 33.62 86.0 Not Reported 4.92 S 7.61 S 8.50 S No 0.000 No Precipitation 04/15/2019 05:32 PM 04/15/2019 05:37 PM 0.000 0.008 0.055 0.091 0.091 Not Reported Not Reported
04/15/2019 07:53 PM 33.80 32.36 30.56 46.94 33.62 87.0 Not Reported 3.36 SW 2.91 SW 10.07 NW No 0.000 No Precipitation 04/15/2019 05:32 PM 04/15/2019 05:37 PM 0.000 0.008 0.051 0.091 0.091 Not Reported Not Reported
04/15/2019 08:08 PM 34.16 32.72 30.56 46.94 33.62 85.0 Not Reported 3.13 W 5.82 S 7.38 S No 0.000 No Precipitation 04/15/2019 05:32 PM 04/15/2019 05:37 PM 0.000 0.004 0.043 0.091 0.091 Not Reported Not Reported
04/15/2019 08:23 PM 33.98 32.72 31.10 46.94 33.62 88.0 Not Reported 2.91 W 1.34 SW 4.70 W No 0.000 No Precipitation 04/15/2019 05:32 PM 04/15/2019 05:37 PM 0.000 0.004 0.039 0.091 0.091 Not Reported Not Reported
04/15/2019 08:38 PM 32.54 32.00 31.64 46.94 32.54 95.0 Not Reported 2.24 NW 2.01 W 4.92 W No 0.000 No Precipitation 04/15/2019 05:32 PM 04/15/2019 05:37 PM 0.000 0.000 0.039 0.091 0.091 Not Reported Not Reported
04/15/2019 08:53 PM 33.80 32.90 31.64 46.94 32.54 90.0 Not Reported 1.12 W 1.34 SW 3.36 SE No 0.000 No Precipitation 04/15/2019 05:32 PM 04/15/2019 05:37 PM 0.000 0.000 0.035 0.091 0.091 Not Reported Not Reported
04/15/2019 09:08 PM 34.34 33.08 31.28 46.94 32.54 87.0 Not Reported 0.89 N 1.34 NE 4.03 SW No 0.000 No Precipitation 04/15/2019 05:32 PM 04/15/2019 05:37 PM 0.000 0.000 0.035 0.091 0.091 Not Reported Not Reported
04/15/2019 09:23 PM 34.34 33.08 31.46 46.94 32.54 88.0 Not Reported 0.89 SW 0.00 NE 4.47 SW No 0.000 No Precipitation 04/15/2019 05:32 PM 04/15/2019 05:37 PM 0.000 0.000 0.028 0.091 0.091 Not Reported Not Reported
04/15/2019 09:38 PM 34.70 33.44 31.82 46.94 32.54 88.0 Not Reported 1.34 N 1.57 SE 5.82 S No 0.000 No Precipitation 04/15/2019 05:32 PM 04/15/2019 05:37 PM 0.000 0.000 0.020 0.091 0.091 Not Reported Not Reported
04/15/2019 09:53 PM 34.88 33.62 32.00 46.94 32.54 89.0 Not Reported 4.92 SW 1.12 NW 5.82 S No 0.000 No Precipitation 04/15/2019 05:32 PM 04/15/2019 05:37 PM 0.000 0.000 0.020 0.091 0.091 Not Reported Not Reported
04/15/2019 10:08 PM 34.88 33.62 32.00 46.94 32.54 88.0 Not Reported 3.13 S 0.45 NW 6.71 SW No 0.000 No Precipitation 04/15/2019 05:32 PM 04/15/2019 05:37 PM 0.000 0.000 0.008 0.091 0.091 Not Reported Not Reported
04/15/2019 10:23 PM 35.06 33.80 32.00 46.94 32.54 88.0 Not Reported 4.25 W 0.67 S 6.04 SW No 0.000 No Precipitation 04/15/2019 05:32 PM 04/15/2019 05:37 PM 0.000 0.000 0.008 0.091 0.091 Not Reported Not Reported
04/15/2019 10:38 PM 34.88 33.98 32.54 46.94 32.54 90.0 Not Reported 1.57 SE 2.91 SW 6.04 NW No 0.000 No Precipitation 04/15/2019 05:32 PM 04/15/2019 05:37 PM 0.000 0.000 0.008 0.091 0.091 Not Reported Not Reported
04/15/2019 10:53 PM 35.42 33.98 32.00 46.94 32.54 87.0 Not Reported 2.24 S 1.34 S 6.04 W No 0.000 No Precipitation 04/15/2019 05:32 PM 04/15/2019 05:37 PM 0.000 0.000 0.008 0.091 0.091 Not Reported Not Reported
04/15/2019 11:08 PM 35.24 33.98 32.18 46.94 32.54 88.0 Not Reported 7.38 SW 6.49 S 5.82 S No 0.000 No Precipitation 04/15/2019 05:32 PM 04/15/2019 05:37 PM 0.000 0.000 0.004 0.091 0.091 Not Reported Not Reported
04/15/2019 11:23 PM 35.06 33.98 32.36 46.94 32.54 89.0 Not Reported 5.14 S 1.34 SW 7.16 SW No 0.000 No Precipitation 04/15/2019 05:32 PM 04/15/2019 05:37 PM 0.000 0.000 0.004 0.091 0.091 Not Reported Not Reported
04/15/2019 11:38 PM 35.06 33.98 32.18 46.94 32.54 88.0 Not Reported 3.13 S 5.59 SW 8.05 SE No 0.000 No Precipitation 04/15/2019 05:32 PM 04/15/2019 05:37 PM 0.000 0.000 0.000 0.091 0.091 Not Reported Not Reported
04/15/2019 11:53 PM 35.06 33.80 32.18 46.94 32.54 89.0 Not Reported 2.91 SW 1.57 E 7.83 SE No 0.000 No Precipitation 04/15/2019 05:32 PM 04/15/2019 05:37 PM 0.000 0.000 0.000 0.091 0.091 Not Reported Not Reported